CST,Max TemperatureF,Mean TemperatureF,Min TemperatureF,Max Dew PointF,MeanDew PointF,Min DewpointF,Max Humidity, Mean Humidity, Min Humidity, Max Sea Level PressureIn, Mean Sea Level PressureIn, Min Sea Level PressureIn, Max VisibilityMiles, Mean VisibilityMiles, Min VisibilityMiles, Max Wind SpeedMPH, Mean Wind SpeedMPH, Max Gust SpeedMPH,PrecipitationIn, CloudCover, Events, WindDirDegrees
2013-2-1,29,13,-3,21,0,-14,72,59,43,30.36,30.16,29.96,10,10,10,18,7,23,0.00,4,,213
2013-2-2,38,26,15,30,14,4,83,64,45,30.16,30.07,29.98,10,9,1,22,9,37,0.00,7,Snow,297
2013-2-3,42,28,14,27,17,7,79,63,45,30.16,29.98,29.75,10,10,10,17,10,25,0.00,3,,238
2013-2-4,30,24,18,25,14,8,85,71,48,30.04,29.92,29.77,10,10,7,14,9,22,0.00,5,,323
2013-2-5,42,32,20,29,24,20,96,80,52,30.08,29.91,29.75,10,9,5,18,9,25,0.00,2,,289
2013-2-6,45,32,20,35,29,20,97,81,60,30.06,29.93,29.82,10,8,5,23,6,29,0.00,4,Rain,168
2013-2-7,34,30,25,32,25,22,95,88,76,30.24,30.07,29.90,10,6,2,18,8,23,0.00,7,,357
2013-2-8,34,28,21,25,22,20,96,85,60,30.33,30.25,30.15,10,10,7,15,7,22,0.00,6,,144
2013-2-9,47,36,26,32,28,24,94,81,53,30.15,29.94,29.75,10,7,3,22,14,26,0.00,5,Rain,155
2013-2-10,40,34,28,39,32,23,99,93,77,29.75,29.41,29.20,10,6,0,23,13,34,0.05,8,Rain-Snow-Thunderstorm,162
2013-2-11,28,26,23,24,20,18,85,80,77,30.10,29.97,29.62,10,10,3,24,18,37,0.00,8,Snow,297
2013-2-12,40,30,19,27,22,16,92,77,52,30.11,29.96,29.87,10,10,10,13,7,,0.00,0,,239
2013-2-13,47,35,23,33,28,22,94,79,52,29.87,29.75,29.65,10,10,10,15,5,22,0.00,3,,239
2013-2-14,37,26,16,30,23,5,89,74,54,30.25,29.97,29.72,10,10,10,23,12,32,0.00,5,Snow,323
2013-2-15,26,19,11,16,11,6,85,72,58,30.33,30.30,30.26,10,10,10,10,7,,0.00,3,,329
2013-2-16,36,22,9,24,15,7,91,77,49,30.29,30.12,30.02,10,10,10,12,3,9,0.00,1,,192
2013-2-17,49,35,21,29,24,17,89,69,42,30.01,29.79,29.57,10,10,10,21,8,25,0.00,1,,167
2013-2-18,36,23,10,31,18,3,88,72,55,30.00,29.75,29.54,10,10,3,24,11,38,0.00,4,Snow,318
2013-2-19,17,10,1,4,-2,-6,77,61,43,30.38,30.21,30.00,10,10,7,22,15,33,0.00,3,,324
2013-2-20,23,10,-3,7,-2,-9,76,58,33,30.40,30.33,30.25,10,10,10,12,6,16,0.00,1,,74
2013-2-21,25,19,13,18,11,7,90,72,46,30.29,30.11,29.90,10,8,1,20,10,26,0.00,6,Snow,71
2013-2-22,24,17,10,17,15,8,94,84,71,29.96,29.91,29.85,10,7,1,14,9,18,0.00,7,Snow,338
2013-2-23,27,14,0,20,9,-4,93,85,73,29.95,29.88,29.83,10,7,0,10,2,,0.00,0,Snow,145
2013-2-24,31,18,6,26,16,4,92,86,79,30.07,29.98,29.88,7,5,4,6,3,,0.00,5,,54
2013-2-25,30,26,21,26,24,21,99,92,79,30.10,30.04,29.97,7,3,0,8,3,,0.00,8,Fog,25
2013-2-26,32,27,22,26,23,22,99,88,74,29.97,29.89,29.82,7,4,1,17,9,22,0.00,6,,14
2013-2-27,36,28,21,25,20,18,91,76,59,30.06,29.95,29.87,10,9,5,23,11,29,0.00,2,,344
2013-2-28,28,26,23,23,21,19,89,82,73,30.21,30.16,30.07,10,9,5,16,10,24,0.00,8,,336